sensor_id;sensor_type;location;lat;lon;timestamp;P1;durP1;ratioP1;P2;durP2;ratioP2
66739;SDS011;53653;52.188;8.602;2024-01-25T00:00:46;30.33;;;5.57;;
66739;SDS011;53653;52.188;8.602;2024-01-25T00:03:12;22.52;;;4.32;;
66739;SDS011;53653;52.188;8.602;2024-01-25T00:05:37;25.00;;;3.70;;
66739;SDS011;53653;52.188;8.602;2024-01-25T00:08:03;22.70;;;3.63;;
66739;SDS011;53653;52.188;8.602;2024-01-25T00:10:29;23.33;;;3.70;;
66739;SDS011;53653;52.188;8.602;2024-01-25T00:12:54;25.67;;;3.90;;
66739;SDS011;53653;52.188;8.602;2024-01-25T00:15:20;19.40;;;3.00;;
66739;SDS011;53653;52.188;8.602;2024-01-25T00:17:45;19.30;;;3.70;;
66739;SDS011;53653;52.188;8.602;2024-01-25T00:20:11;23.08;;;4.15;;
66739;SDS011;53653;52.188;8.602;2024-01-25T00:22:36;23.00;;;3.50;;
66739;SDS011;53653;52.188;8.602;2024-01-25T00:25:03;26.67;;;3.42;;
66739;SDS011;53653;52.188;8.602;2024-01-25T00:27:29;19.83;;;3.33;;
66739;SDS011;53653;52.188;8.602;2024-01-25T00:29:55;31.77;;;3.97;;
66739;SDS011;53653;52.188;8.602;2024-01-25T00:32:20;28.63;;;4.20;;
66739;SDS011;53653;52.188;8.602;2024-01-25T00:34:46;21.88;;;3.50;;
66739;SDS011;53653;52.188;8.602;2024-01-25T00:37:12;21.73;;;3.30;;
66739;SDS011;53653;52.188;8.602;2024-01-25T00:39:37;23.77;;;3.30;;
66739;SDS011;53653;52.188;8.602;2024-01-25T00:42:03;21.77;;;3.07;;
66739;SDS011;53653;52.188;8.602;2024-01-25T00:44:31;20.27;;;3.33;;
66739;SDS011;53653;52.188;8.602;2024-01-25T00:46:56;28.88;;;3.58;;
66739;SDS011;53653;52.188;8.602;2024-01-25T00:49:22;22.02;;;4.28;;
66739;SDS011;53653;52.188;8.602;2024-01-25T00:51:48;20.83;;;3.67;;
66739;SDS011;53653;52.188;8.602;2024-01-25T00:54:14;22.60;;;3.22;;
66739;SDS011;53653;52.188;8.602;2024-01-25T00:56:40;28.03;;;3.40;;
66739;SDS011;53653;52.188;8.602;2024-01-25T00:59:06;30.13;;;3.42;;
66739;SDS011;53653;52.188;8.602;2024-01-25T01:01:31;25.40;;;4.20;;
66739;SDS011;53653;52.188;8.602;2024-01-25T01:03:58;20.20;;;3.57;;
66739;SDS011;53653;52.188;8.602;2024-01-25T01:06:24;22.33;;;3.65;;
66739;SDS011;53653;52.188;8.602;2024-01-25T01:08:49;18.33;;;3.10;;
66739;SDS011;53653;52.188;8.602;2024-01-25T01:11:15;20.00;;;3.53;;
66739;SDS011;53653;52.188;8.602;2024-01-25T01:13:40;17.30;;;2.83;;
66739;SDS011;53653;52.188;8.602;2024-01-25T01:16:06;18.30;;;3.73;;
66739;SDS011;53653;52.188;8.602;2024-01-25T01:18:32;20.60;;;3.70;;
66739;SDS011;53653;52.188;8.602;2024-01-25T01:20:57;22.15;;;3.47;;
66739;SDS011;53653;52.188;8.602;2024-01-25T01:23:23;18.80;;;4.10;;
66739;SDS011;53653;52.188;8.602;2024-01-25T01:25:48;27.03;;;3.40;;
66739;SDS011;53653;52.188;8.602;2024-01-25T01:28:14;25.95;;;4.65;;
66739;SDS011;53653;52.188;8.602;2024-01-25T01:30:40;21.97;;;3.87;;
66739;SDS011;53653;52.188;8.602;2024-01-25T01:33:09;26.85;;;3.95;;
66739;SDS011;53653;52.188;8.602;2024-01-25T01:35:35;21.92;;;2.75;;
66739;SDS011;53653;52.188;8.602;2024-01-25T01:38:00;16.17;;;3.00;;
66739;SDS011;53653;52.188;8.602;2024-01-25T01:40:27;21.45;;;2.92;;
66739;SDS011;53653;52.188;8.602;2024-01-25T01:42:58;20.63;;;3.50;;
66739;SDS011;53653;52.188;8.602;2024-01-25T01:45:24;28.17;;;3.30;;
66739;SDS011;53653;52.188;8.602;2024-01-25T01:47:50;20.27;;;3.00;;
66739;SDS011;53653;52.188;8.602;2024-01-25T01:50:15;22.35;;;4.00;;
66739;SDS011;53653;52.188;8.602;2024-01-25T01:52:41;21.57;;;3.70;;
66739;SDS011;53653;52.188;8.602;2024-01-25T01:55:07;20.73;;;3.35;;
66739;SDS011;53653;52.188;8.602;2024-01-25T01:57:34;24.70;;;3.53;;
66739;SDS011;53653;52.188;8.602;2024-01-25T02:00:00;23.00;;;3.22;;
66739;SDS011;53653;52.188;8.602;2024-01-25T02:02:36;15.50;;;3.00;;
66739;SDS011;53653;52.188;8.602;2024-01-25T02:05:02;26.63;;;3.55;;
66739;SDS011;53653;52.188;8.602;2024-01-25T02:07:28;18.03;;;2.87;;
66739;SDS011;53653;52.188;8.602;2024-01-25T02:09:54;22.13;;;4.35;;
66739;SDS011;53653;52.188;8.602;2024-01-25T02:12:19;28.60;;;4.27;;
66739;SDS011;53653;52.188;8.602;2024-01-25T02:14:45;25.87;;;3.70;;
66739;SDS011;53653;52.188;8.602;2024-01-25T02:17:10;25.50;;;3.85;;
66739;SDS011;53653;52.188;8.602;2024-01-25T02:19:36;21.07;;;3.30;;
66739;SDS011;53653;52.188;8.602;2024-01-25T02:22:01;24.10;;;3.28;;
66739;SDS011;53653;52.188;8.602;2024-01-25T02:24:30;22.17;;;2.40;;
66739;SDS011;53653;52.188;8.602;2024-01-25T02:26:55;25.25;;;3.30;;
66739;SDS011;53653;52.188;8.602;2024-01-25T02:29:21;20.40;;;3.87;;
66739;SDS011;53653;52.188;8.602;2024-01-25T02:31:46;26.42;;;3.60;;
66739;SDS011;53653;52.188;8.602;2024-01-25T02:34:12;23.80;;;3.40;;
66739;SDS011;53653;52.188;8.602;2024-01-25T02:36:37;20.43;;;2.83;;
66739;SDS011;53653;52.188;8.602;2024-01-25T02:39:03;24.00;;;3.43;;
66739;SDS011;53653;52.188;8.602;2024-01-25T02:41:29;18.27;;;2.90;;
66739;SDS011;53653;52.188;8.602;2024-01-25T02:43:55;22.40;;;3.38;;
66739;SDS011;53653;52.188;8.602;2024-01-25T02:46:21;23.33;;;2.90;;
66739;SDS011;53653;52.188;8.602;2024-01-25T02:48:46;25.10;;;3.90;;
66739;SDS011;53653;52.188;8.602;2024-01-25T02:51:12;24.77;;;4.20;;
66739;SDS011;53653;52.188;8.602;2024-01-25T02:53:37;22.80;;;4.40;;
66739;SDS011;53653;52.188;8.602;2024-01-25T02:56:03;23.20;;;3.03;;
66739;SDS011;53653;52.188;8.602;2024-01-25T02:58:28;20.30;;;2.88;;
66739;SDS011;53653;52.188;8.602;2024-01-25T03:00:54;24.20;;;3.20;;
66739;SDS011;53653;52.188;8.602;2024-01-25T03:03:19;20.17;;;3.23;;
66739;SDS011;53653;52.188;8.602;2024-01-25T03:05:45;26.73;;;3.33;;
66739;SDS011;53653;52.188;8.602;2024-01-25T03:08:10;17.93;;;3.27;;
66739;SDS011;53653;52.188;8.602;2024-01-25T03:10:35;19.00;;;3.30;;
66739;SDS011;53653;52.188;8.602;2024-01-25T03:13:01;19.13;;;2.83;;
66739;SDS011;53653;52.188;8.602;2024-01-25T03:15:26;26.27;;;3.40;;
66739;SDS011;53653;52.188;8.602;2024-01-25T03:17:52;21.58;;;3.15;;
66739;SDS011;53653;52.188;8.602;2024-01-25T03:20:17;22.90;;;3.03;;
66739;SDS011;53653;52.188;8.602;2024-01-25T03:22:42;24.33;;;3.20;;
66739;SDS011;53653;52.188;8.602;2024-01-25T03:25:08;23.63;;;4.00;;
66739;SDS011;53653;52.188;8.602;2024-01-25T03:27:35;20.83;;;3.88;;
66739;SDS011;53653;52.188;8.602;2024-01-25T03:30:00;25.50;;;3.30;;
66739;SDS011;53653;52.188;8.602;2024-01-25T03:32:26;15.17;;;3.23;;
66739;SDS011;53653;52.188;8.602;2024-01-25T03:34:51;25.87;;;3.10;;
66739;SDS011;53653;52.188;8.602;2024-01-25T03:37:16;23.40;;;3.27;;
66739;SDS011;53653;52.188;8.602;2024-01-25T03:39:42;21.27;;;3.42;;
66739;SDS011;53653;52.188;8.602;2024-01-25T03:42:08;21.87;;;3.13;;
66739;SDS011;53653;52.188;8.602;2024-01-25T03:44:33;16.47;;;3.23;;
66739;SDS011;53653;52.188;8.602;2024-01-25T03:46:59;20.07;;;2.97;;
66739;SDS011;53653;52.188;8.602;2024-01-25T03:49:24;21.05;;;2.90;;
66739;SDS011;53653;52.188;8.602;2024-01-25T03:51:49;23.00;;;2.97;;
66739;SDS011;53653;52.188;8.602;2024-01-25T03:54:15;25.43;;;3.50;;
66739;SDS011;53653;52.188;8.602;2024-01-25T03:56:41;21.75;;;2.95;;
66739;SDS011;53653;52.188;8.602;2024-01-25T03:59:06;26.37;;;3.63;;
66739;SDS011;53653;52.188;8.602;2024-01-25T04:01:40;18.70;;;2.92;;
66739;SDS011;53653;52.188;8.602;2024-01-25T04:04:07;26.25;;;3.47;;
66739;SDS011;53653;52.188;8.602;2024-01-25T04:06:34;21.85;;;4.20;;
66739;SDS011;53653;52.188;8.602;2024-01-25T04:08:59;15.63;;;3.10;;
66739;SDS011;53653;52.188;8.602;2024-01-25T04:11:25;25.23;;;3.53;;
66739;SDS011;53653;52.188;8.602;2024-01-25T04:13:50;21.23;;;3.60;;
66739;SDS011;53653;52.188;8.602;2024-01-25T04:16:15;15.23;;;3.10;;
66739;SDS011;53653;52.188;8.602;2024-01-25T04:18:41;21.63;;;3.17;;
66739;SDS011;53653;52.188;8.602;2024-01-25T04:21:06;20.60;;;3.30;;
66739;SDS011;53653;52.188;8.602;2024-01-25T04:23:32;27.87;;;3.70;;
66739;SDS011;53653;52.188;8.602;2024-01-25T04:25:57;28.27;;;3.72;;
66739;SDS011;53653;52.188;8.602;2024-01-25T04:28:23;20.97;;;2.93;;
66739;SDS011;53653;52.188;8.602;2024-01-25T04:30:48;24.77;;;3.10;;
66739;SDS011;53653;52.188;8.602;2024-01-25T04:33:13;21.90;;;4.03;;
66739;SDS011;53653;52.188;8.602;2024-01-25T04:35:39;26.95;;;3.05;;
66739;SDS011;53653;52.188;8.602;2024-01-25T04:38:04;24.43;;;3.83;;
66739;SDS011;53653;52.188;8.602;2024-01-25T04:40:30;22.90;;;3.13;;
66739;SDS011;53653;52.188;8.602;2024-01-25T04:42:55;22.03;;;3.27;;
66739;SDS011;53653;52.188;8.602;2024-01-25T04:45:21;23.35;;;2.80;;
66739;SDS011;53653;52.188;8.602;2024-01-25T04:47:46;24.87;;;3.40;;
66739;SDS011;53653;52.188;8.602;2024-01-25T04:50:12;19.07;;;3.60;;
66739;SDS011;53653;52.188;8.602;2024-01-25T04:52:37;25.27;;;4.17;;
66739;SDS011;53653;52.188;8.602;2024-01-25T04:55:02;20.25;;;3.15;;
66739;SDS011;53653;52.188;8.602;2024-01-25T04:57:28;20.13;;;3.53;;
66739;SDS011;53653;52.188;8.602;2024-01-25T04:59:53;19.77;;;3.23;;
66739;SDS011;53653;52.188;8.602;2024-01-25T05:02:19;23.60;;;3.65;;
66739;SDS011;53653;52.188;8.602;2024-01-25T05:04:44;19.10;;;3.20;;
66739;SDS011;53653;52.188;8.602;2024-01-25T05:07:10;23.70;;;2.87;;
66739;SDS011;53653;52.188;8.602;2024-01-25T05:09:35;27.53;;;3.90;;
66739;SDS011;53653;52.188;8.602;2024-01-25T05:12:00;25.40;;;3.57;;
66739;SDS011;53653;52.188;8.602;2024-01-25T05:14:27;16.37;;;2.67;;
66739;SDS011;53653;52.188;8.602;2024-01-25T05:16:52;15.82;;;3.30;;
66739;SDS011;53653;52.188;8.602;2024-01-25T05:19:18;20.17;;;3.33;;
66739;SDS011;53653;52.188;8.602;2024-01-25T05:21:43;23.20;;;3.23;;
66739;SDS011;53653;52.188;8.602;2024-01-25T05:24:08;24.63;;;2.77;;
66739;SDS011;53653;52.188;8.602;2024-01-25T05:26:35;26.67;;;4.03;;
66739;SDS011;53653;52.188;8.602;2024-01-25T05:29:00;17.60;;;2.73;;
66739;SDS011;53653;52.188;8.602;2024-01-25T05:31:26;21.52;;;3.28;;
66739;SDS011;53653;52.188;8.602;2024-01-25T05:33:51;28.03;;;4.37;;
66739;SDS011;53653;52.188;8.602;2024-01-25T05:36:17;28.27;;;3.50;;
66739;SDS011;53653;52.188;8.602;2024-01-25T05:38:42;23.33;;;3.73;;
66739;SDS011;53653;52.188;8.602;2024-01-25T05:41:08;13.90;;;3.00;;
66739;SDS011;53653;52.188;8.602;2024-01-25T05:43:33;26.27;;;3.33;;
66739;SDS011;53653;52.188;8.602;2024-01-25T05:45:58;31.70;;;4.03;;
66739;SDS011;53653;52.188;8.602;2024-01-25T05:48:24;20.70;;;3.93;;
66739;SDS011;53653;52.188;8.602;2024-01-25T05:50:49;23.13;;;3.57;;
66739;SDS011;53653;52.188;8.602;2024-01-25T05:53:15;24.90;;;3.30;;
66739;SDS011;53653;52.188;8.602;2024-01-25T05:55:41;27.13;;;3.53;;
66739;SDS011;53653;52.188;8.602;2024-01-25T05:58:07;29.75;;;3.70;;
66739;SDS011;53653;52.188;8.602;2024-01-25T06:00:32;22.57;;;3.03;;
66739;SDS011;53653;52.188;8.602;2024-01-25T06:02:58;21.98;;;3.75;;
66739;SDS011;53653;52.188;8.602;2024-01-25T06:05:24;22.07;;;3.40;;
66739;SDS011;53653;52.188;8.602;2024-01-25T06:07:49;23.07;;;3.13;;
66739;SDS011;53653;52.188;8.602;2024-01-25T06:10:15;18.30;;;2.80;;
66739;SDS011;53653;52.188;8.602;2024-01-25T06:12:41;15.87;;;3.33;;
66739;SDS011;53653;52.188;8.602;2024-01-25T06:15:06;25.63;;;3.87;;
66739;SDS011;53653;52.188;8.602;2024-01-25T06:17:32;35.00;;;4.53;;
66739;SDS011;53653;52.188;8.602;2024-01-25T06:19:57;24.60;;;3.80;;
66739;SDS011;53653;52.188;8.602;2024-01-25T06:22:23;28.33;;;3.42;;
66739;SDS011;53653;52.188;8.602;2024-01-25T06:24:48;24.70;;;4.27;;
66739;SDS011;53653;52.188;8.602;2024-01-25T06:27:13;21.83;;;3.57;;
66739;SDS011;53653;52.188;8.602;2024-01-25T06:29:39;36.43;;;4.10;;
66739;SDS011;53653;52.188;8.602;2024-01-25T06:32:05;18.80;;;3.22;;
66739;SDS011;53653;52.188;8.602;2024-01-25T06:34:31;18.03;;;3.67;;
66739;SDS011;53653;52.188;8.602;2024-01-25T06:36:57;15.70;;;2.90;;
66739;SDS011;53653;52.188;8.602;2024-01-25T06:39:22;25.10;;;3.03;;
66739;SDS011;53653;52.188;8.602;2024-01-25T06:41:47;24.00;;;4.07;;
66739;SDS011;53653;52.188;8.602;2024-01-25T06:44:13;30.73;;;3.70;;
66739;SDS011;53653;52.188;8.602;2024-01-25T06:46:39;26.38;;;2.92;;
66739;SDS011;53653;52.188;8.602;2024-01-25T06:49:04;19.60;;;3.13;;
66739;SDS011;53653;52.188;8.602;2024-01-25T06:51:30;25.35;;;4.05;;
66739;SDS011;53653;52.188;8.602;2024-01-25T06:53:55;23.40;;;3.40;;
66739;SDS011;53653;52.188;8.602;2024-01-25T06:56:20;23.80;;;3.73;;
66739;SDS011;53653;52.188;8.602;2024-01-25T06:58:46;22.70;;;3.70;;
66739;SDS011;53653;52.188;8.602;2024-01-25T07:01:11;29.30;;;4.07;;
66739;SDS011;53653;52.188;8.602;2024-01-25T07:03:37;22.77;;;3.13;;
66739;SDS011;53653;52.188;8.602;2024-01-25T07:06:03;24.27;;;3.60;;
66739;SDS011;53653;52.188;8.602;2024-01-25T07:08:29;20.15;;;3.92;;
66739;SDS011;53653;52.188;8.602;2024-01-25T07:10:54;29.20;;;4.30;;
66739;SDS011;53653;52.188;8.602;2024-01-25T07:13:21;29.13;;;3.88;;
66739;SDS011;53653;52.188;8.602;2024-01-25T07:15:47;24.10;;;3.80;;
66739;SDS011;53653;52.188;8.602;2024-01-25T07:18:13;19.80;;;3.40;;
66739;SDS011;53653;52.188;8.602;2024-01-25T07:20:38;22.03;;;3.77;;
66739;SDS011;53653;52.188;8.602;2024-01-25T07:23:04;18.23;;;3.40;;
66739;SDS011;53653;52.188;8.602;2024-01-25T07:25:29;22.33;;;4.78;;
66739;SDS011;53653;52.188;8.602;2024-01-25T07:27:55;23.80;;;4.23;;
66739;SDS011;53653;52.188;8.602;2024-01-25T07:30:20;25.33;;;3.70;;
66739;SDS011;53653;52.188;8.602;2024-01-25T07:32:46;21.07;;;3.87;;
66739;SDS011;53653;52.188;8.602;2024-01-25T07:35:12;29.60;;;4.40;;
66739;SDS011;53653;52.188;8.602;2024-01-25T07:37:38;28.42;;;4.57;;
66739;SDS011;53653;52.188;8.602;2024-01-25T07:40:06;22.25;;;3.72;;
66739;SDS011;53653;52.188;8.602;2024-01-25T07:42:32;18.05;;;3.40;;
66739;SDS011;53653;52.188;8.602;2024-01-25T07:44:57;28.00;;;4.10;;
66739;SDS011;53653;52.188;8.602;2024-01-25T07:47:23;28.45;;;3.95;;
66739;SDS011;53653;52.188;8.602;2024-01-25T07:49:49;16.90;;;3.37;;
66739;SDS011;53653;52.188;8.602;2024-01-25T07:52:14;27.42;;;4.20;;
66739;SDS011;53653;52.188;8.602;2024-01-25T07:54:40;22.80;;;3.90;;
66739;SDS011;53653;52.188;8.602;2024-01-25T07:57:05;29.93;;;3.90;;
66739;SDS011;53653;52.188;8.602;2024-01-25T07:59:31;28.83;;;4.45;;
66739;SDS011;53653;52.188;8.602;2024-01-25T08:01:57;28.67;;;4.23;;
66739;SDS011;53653;52.188;8.602;2024-01-25T08:04:22;15.15;;;3.25;;
66739;SDS011;53653;52.188;8.602;2024-01-25T08:06:48;27.50;;;4.27;;
66739;SDS011;53653;52.188;8.602;2024-01-25T08:09:13;35.33;;;4.77;;
66739;SDS011;53653;52.188;8.602;2024-01-25T08:11:39;24.70;;;3.90;;
66739;SDS011;53653;52.188;8.602;2024-01-25T08:14:05;18.65;;;3.88;;
66739;SDS011;53653;52.188;8.602;2024-01-25T08:16:31;18.20;;;3.63;;
66739;SDS011;53653;52.188;8.602;2024-01-25T08:18:56;25.38;;;3.58;;
66739;SDS011;53653;52.188;8.602;2024-01-25T08:21:24;29.30;;;4.23;;
66739;SDS011;53653;52.188;8.602;2024-01-25T08:23:50;19.35;;;3.63;;
66739;SDS011;53653;52.188;8.602;2024-01-25T08:26:15;22.73;;;3.83;;
66739;SDS011;53653;52.188;8.602;2024-01-25T08:28:41;23.48;;;4.03;;
66739;SDS011;53653;52.188;8.602;2024-01-25T08:31:09;24.63;;;4.32;;
66739;SDS011;53653;52.188;8.602;2024-01-25T08:33:35;22.53;;;4.20;;
66739;SDS011;53653;52.188;8.602;2024-01-25T08:36:01;27.17;;;4.30;;
66739;SDS011;53653;52.188;8.602;2024-01-25T08:38:27;23.98;;;4.65;;
66739;SDS011;53653;52.188;8.602;2024-01-25T08:40:53;30.17;;;4.00;;
66739;SDS011;53653;52.188;8.602;2024-01-25T08:43:18;21.98;;;5.07;;
66739;SDS011;53653;52.188;8.602;2024-01-25T08:45:46;24.40;;;3.85;;
66739;SDS011;53653;52.188;8.602;2024-01-25T08:48:12;30.03;;;4.70;;
66739;SDS011;53653;52.188;8.602;2024-01-25T08:50:38;23.15;;;3.67;;
66739;SDS011;53653;52.188;8.602;2024-01-25T08:53:04;26.90;;;4.35;;
66739;SDS011;53653;52.188;8.602;2024-01-25T08:55:30;24.07;;;4.57;;
66739;SDS011;53653;52.188;8.602;2024-01-25T08:57:56;23.38;;;3.83;;
66739;SDS011;53653;52.188;8.602;2024-01-25T09:00:22;24.92;;;3.65;;
66739;SDS011;53653;52.188;8.602;2024-01-25T09:02:48;32.77;;;5.13;;
66739;SDS011;53653;52.188;8.602;2024-01-25T09:05:13;20.08;;;3.92;;
66739;SDS011;53653;52.188;8.602;2024-01-25T09:07:40;21.50;;;4.43;;
66739;SDS011;53653;52.188;8.602;2024-01-25T09:10:06;23.25;;;4.05;;
66739;SDS011;53653;52.188;8.602;2024-01-25T09:12:35;23.40;;;3.90;;
66739;SDS011;53653;52.188;8.602;2024-01-25T09:15:02;27.02;;;4.72;;
66739;SDS011;53653;52.188;8.602;2024-01-25T09:17:29;21.67;;;4.20;;
66739;SDS011;53653;52.188;8.602;2024-01-25T09:19:54;29.20;;;4.50;;
66739;SDS011;53653;52.188;8.602;2024-01-25T09:22:20;25.33;;;4.77;;
66739;SDS011;53653;52.188;8.602;2024-01-25T09:24:46;32.03;;;5.18;;
66739;SDS011;53653;52.188;8.602;2024-01-25T09:27:12;28.25;;;4.20;;
66739;SDS011;53653;52.188;8.602;2024-01-25T09:29:41;22.07;;;3.83;;
66739;SDS011;53653;52.188;8.602;2024-01-25T09:32:07;20.60;;;4.15;;
66739;SDS011;53653;52.188;8.602;2024-01-25T09:34:36;26.55;;;4.93;;
66739;SDS011;53653;52.188;8.602;2024-01-25T09:37:03;22.23;;;4.07;;
66739;SDS011;53653;52.188;8.602;2024-01-25T09:39:29;51.85;;;5.80;;
66739;SDS011;53653;52.188;8.602;2024-01-25T09:41:54;25.77;;;4.63;;
66739;SDS011;53653;52.188;8.602;2024-01-25T09:44:20;27.73;;;5.03;;
66739;SDS011;53653;52.188;8.602;2024-01-25T09:46:46;26.97;;;4.43;;
66739;SDS011;53653;52.188;8.602;2024-01-25T09:49:12;24.70;;;4.22;;
66739;SDS011;53653;52.188;8.602;2024-01-25T09:51:38;25.70;;;4.70;;
66739;SDS011;53653;52.188;8.602;2024-01-25T09:54:04;31.65;;;4.90;;
66739;SDS011;53653;52.188;8.602;2024-01-25T09:56:34;31.52;;;4.55;;
66739;SDS011;53653;52.188;8.602;2024-01-25T09:59:00;29.40;;;5.22;;
66739;SDS011;53653;52.188;8.602;2024-01-25T10:01:27;24.37;;;4.97;;
66739;SDS011;53653;52.188;8.602;2024-01-25T10:03:53;36.55;;;5.72;;
66739;SDS011;53653;52.188;8.602;2024-01-25T10:06:21;22.13;;;5.50;;
66739;SDS011;53653;52.188;8.602;2024-01-25T10:08:47;24.23;;;4.88;;
66739;SDS011;53653;52.188;8.602;2024-01-25T10:11:14;27.88;;;6.40;;
66739;SDS011;53653;52.188;8.602;2024-01-25T10:13:43;32.27;;;6.33;;
66739;SDS011;53653;52.188;8.602;2024-01-25T10:16:14;28.75;;;6.50;;
66739;SDS011;53653;52.188;8.602;2024-01-25T10:18:41;25.15;;;6.03;;
66739;SDS011;53653;52.188;8.602;2024-01-25T10:21:10;26.17;;;6.35;;
66739;SDS011;53653;52.188;8.602;2024-01-25T10:23:37;31.90;;;5.55;;
66739;SDS011;53653;52.188;8.602;2024-01-25T10:26:03;20.70;;;5.00;;
66739;SDS011;53653;52.188;8.602;2024-01-25T10:28:29;31.73;;;5.80;;
66739;SDS011;53653;52.188;8.602;2024-01-25T10:30:59;28.92;;;5.07;;
66739;SDS011;53653;52.188;8.602;2024-01-25T10:33:35;33.22;;;6.85;;
66739;SDS011;53653;52.188;8.602;2024-01-25T10:36:03;23.37;;;5.27;;
66739;SDS011;53653;52.188;8.602;2024-01-25T10:38:33;27.15;;;5.65;;
66739;SDS011;53653;52.188;8.602;2024-01-25T10:41:04;32.35;;;5.78;;
66739;SDS011;53653;52.188;8.602;2024-01-25T10:43:31;26.92;;;6.93;;
66739;SDS011;53653;52.188;8.602;2024-01-25T10:45:57;33.97;;;5.53;;
66739;SDS011;53653;52.188;8.602;2024-01-25T10:48:27;33.80;;;6.63;;
66739;SDS011;53653;52.188;8.602;2024-01-25T10:50:54;26.17;;;5.95;;
66739;SDS011;53653;52.188;8.602;2024-01-25T10:53:24;30.38;;;5.70;;
66739;SDS011;53653;52.188;8.602;2024-01-25T10:55:50;31.63;;;5.88;;
66739;SDS011;53653;52.188;8.602;2024-01-25T10:58:16;30.53;;;6.37;;
66739;SDS011;53653;52.188;8.602;2024-01-25T11:00:49;29.23;;;5.53;;
66739;SDS011;53653;52.188;8.602;2024-01-25T11:03:25;34.17;;;7.13;;
66739;SDS011;53653;52.188;8.602;2024-01-25T11:05:52;30.45;;;6.25;;
66739;SDS011;53653;52.188;8.602;2024-01-25T11:08:19;31.95;;;6.60;;
66739;SDS011;53653;52.188;8.602;2024-01-25T11:10:48;29.67;;;5.37;;
66739;SDS011;53653;52.188;8.602;2024-01-25T11:13:26;26.30;;;5.50;;
66739;SDS011;53653;52.188;8.602;2024-01-25T11:15:52;25.65;;;6.15;;
66739;SDS011;53653;52.188;8.602;2024-01-25T11:18:17;28.17;;;5.73;;
66739;SDS011;53653;52.188;8.602;2024-01-25T11:20:46;19.97;;;4.60;;
66739;SDS011;53653;52.188;8.602;2024-01-25T11:23:15;27.67;;;5.70;;
66739;SDS011;53653;52.188;8.602;2024-01-25T11:25:43;23.90;;;6.10;;
66739;SDS011;53653;52.188;8.602;2024-01-25T11:28:11;27.20;;;6.00;;
66739;SDS011;53653;52.188;8.602;2024-01-25T11:30:40;24.77;;;6.40;;
66739;SDS011;53653;52.188;8.602;2024-01-25T11:33:08;36.45;;;6.97;;
66739;SDS011;53653;52.188;8.602;2024-01-25T11:35:34;33.00;;;6.57;;
66739;SDS011;53653;52.188;8.602;2024-01-25T11:38:00;30.58;;;6.72;;
66739;SDS011;53653;52.188;8.602;2024-01-25T11:40:26;30.90;;;6.73;;
66739;SDS011;53653;52.188;8.602;2024-01-25T11:42:53;34.30;;;6.55;;
66739;SDS011;53653;52.188;8.602;2024-01-25T11:45:19;24.37;;;5.73;;
66739;SDS011;53653;52.188;8.602;2024-01-25T11:47:45;28.63;;;6.07;;
66739;SDS011;53653;52.188;8.602;2024-01-25T11:50:11;26.75;;;5.03;;
66739;SDS011;53653;52.188;8.602;2024-01-25T11:52:38;23.50;;;5.27;;
66739;SDS011;53653;52.188;8.602;2024-01-25T11:55:04;34.03;;;6.85;;
66739;SDS011;53653;52.188;8.602;2024-01-25T11:57:37;20.35;;;4.70;;
66739;SDS011;53653;52.188;8.602;2024-01-25T12:00:09;20.17;;;4.72;;
66739;SDS011;53653;52.188;8.602;2024-01-25T12:02:38;23.37;;;5.77;;
66739;SDS011;53653;52.188;8.602;2024-01-25T12:05:05;28.13;;;5.72;;
66739;SDS011;53653;52.188;8.602;2024-01-25T12:07:31;23.92;;;5.70;;
66739;SDS011;53653;52.188;8.602;2024-01-25T12:12:36;25.08;;;5.50;;
66739;SDS011;53653;52.188;8.602;2024-01-25T12:15:05;18.43;;;4.93;;
66739;SDS011;53653;52.188;8.602;2024-01-25T12:17:32;30.92;;;5.43;;
66739;SDS011;53653;52.188;8.602;2024-01-25T12:20:01;25.38;;;5.47;;
66739;SDS011;53653;52.188;8.602;2024-01-25T12:22:28;20.98;;;4.82;;
66739;SDS011;53653;52.188;8.602;2024-01-25T12:24:55;23.92;;;5.32;;
66739;SDS011;53653;52.188;8.602;2024-01-25T12:27:24;24.00;;;5.07;;
66739;SDS011;53653;52.188;8.602;2024-01-25T12:29:51;25.73;;;5.28;;
66739;SDS011;53653;52.188;8.602;2024-01-25T12:32:21;26.15;;;4.65;;
66739;SDS011;53653;52.188;8.602;2024-01-25T12:34:53;24.75;;;5.00;;
66739;SDS011;53653;52.188;8.602;2024-01-25T12:37:20;29.97;;;5.43;;
66739;SDS011;53653;52.188;8.602;2024-01-25T12:39:46;22.17;;;4.82;;
66739;SDS011;53653;52.188;8.602;2024-01-25T12:42:11;20.70;;;4.95;;
66739;SDS011;53653;52.188;8.602;2024-01-25T12:44:38;26.48;;;5.72;;
66739;SDS011;53653;52.188;8.602;2024-01-25T12:47:04;24.07;;;5.50;;
66739;SDS011;53653;52.188;8.602;2024-01-25T12:49:32;21.48;;;4.50;;
66739;SDS011;53653;52.188;8.602;2024-01-25T12:51:57;24.70;;;4.60;;
66739;SDS011;53653;52.188;8.602;2024-01-25T12:54:23;26.07;;;4.77;;
66739;SDS011;53653;52.188;8.602;2024-01-25T12:56:49;23.02;;;4.63;;
66739;SDS011;53653;52.188;8.602;2024-01-25T12:59:15;23.75;;;4.32;;
66739;SDS011;53653;52.188;8.602;2024-01-25T13:01:40;23.77;;;4.80;;
66739;SDS011;53653;52.188;8.602;2024-01-25T13:04:06;18.23;;;4.23;;
66739;SDS011;53653;52.188;8.602;2024-01-25T13:06:31;22.73;;;4.60;;
66739;SDS011;53653;52.188;8.602;2024-01-25T13:08:57;20.90;;;4.63;;
66739;SDS011;53653;52.188;8.602;2024-01-25T13:11:22;28.40;;;5.17;;
66739;SDS011;53653;52.188;8.602;2024-01-25T13:13:48;24.98;;;4.15;;
66739;SDS011;53653;52.188;8.602;2024-01-25T13:16:15;26.02;;;4.45;;
66739;SDS011;53653;52.188;8.602;2024-01-25T13:18:41;21.50;;;4.20;;
66739;SDS011;53653;52.188;8.602;2024-01-25T13:21:07;20.13;;;4.37;;
66739;SDS011;53653;52.188;8.602;2024-01-25T13:23:32;22.55;;;4.72;;
66739;SDS011;53653;52.188;8.602;2024-01-25T13:25:58;22.73;;;3.87;;
66739;SDS011;53653;52.188;8.602;2024-01-25T13:28:23;25.88;;;5.10;;
66739;SDS011;53653;52.188;8.602;2024-01-25T13:30:49;20.00;;;4.00;;
66739;SDS011;53653;52.188;8.602;2024-01-25T13:33:14;29.43;;;5.63;;
66739;SDS011;53653;52.188;8.602;2024-01-25T13:35:40;28.88;;;4.97;;
66739;SDS011;53653;52.188;8.602;2024-01-25T13:38:05;21.07;;;4.97;;
66739;SDS011;53653;52.188;8.602;2024-01-25T13:40:31;21.07;;;4.23;;
66739;SDS011;53653;52.188;8.602;2024-01-25T13:42:57;28.00;;;5.60;;
66739;SDS011;53653;52.188;8.602;2024-01-25T13:45:22;31.03;;;4.83;;
66739;SDS011;53653;52.188;8.602;2024-01-25T13:47:48;27.77;;;4.97;;
66739;SDS011;53653;52.188;8.602;2024-01-25T13:50:13;23.57;;;5.63;;
66739;SDS011;53653;52.188;8.602;2024-01-25T13:52:39;25.83;;;5.03;;
66739;SDS011;53653;52.188;8.602;2024-01-25T13:55:05;28.75;;;7.15;;
66739;SDS011;53653;52.188;8.602;2024-01-25T13:57:31;35.80;;;9.02;;
66739;SDS011;53653;52.188;8.602;2024-01-25T13:59:56;22.60;;;7.03;;
66739;SDS011;53653;52.188;8.602;2024-01-25T14:02:22;31.37;;;5.70;;
66739;SDS011;53653;52.188;8.602;2024-01-25T14:04:47;27.60;;;6.13;;
66739;SDS011;53653;52.188;8.602;2024-01-25T14:07:16;23.43;;;5.90;;
66739;SDS011;53653;52.188;8.602;2024-01-25T14:09:46;19.88;;;5.78;;
66739;SDS011;53653;52.188;8.602;2024-01-25T14:12:11;31.93;;;6.70;;
66739;SDS011;53653;52.188;8.602;2024-01-25T14:14:37;32.90;;;6.25;;
66739;SDS011;53653;52.188;8.602;2024-01-25T14:17:03;29.67;;;6.17;;
66739;SDS011;53653;52.188;8.602;2024-01-25T14:19:28;26.92;;;6.03;;
66739;SDS011;53653;52.188;8.602;2024-01-25T14:21:54;21.67;;;5.90;;
66739;SDS011;53653;52.188;8.602;2024-01-25T14:24:19;28.73;;;6.30;;
66739;SDS011;53653;52.188;8.602;2024-01-25T14:26:45;22.37;;;6.97;;
66739;SDS011;53653;52.188;8.602;2024-01-25T14:29:11;22.80;;;5.97;;